sensor_id;sensor_type;location;lat;lon;timestamp;temperature;humidity
72114;SHT31;59989;46.220;19.888;2022-09-02T00:01:31;17.44;60.98
72114;SHT31;59989;46.220;19.888;2022-09-02T00:04:34;17.45;61.05
72114;SHT31;59989;46.220;19.888;2022-09-02T00:07:36;17.45;61.51
72114;SHT31;59989;46.220;19.888;2022-09-02T00:10:42;17.38;61.46
72114;SHT31;59989;46.220;19.888;2022-09-02T00:13:45;17.35;62.28
72114;SHT31;59989;46.220;19.888;2022-09-02T00:16:47;17.34;62.01
72114;SHT31;59989;46.220;19.888;2022-09-02T00:19:53;17.31;61.67
72114;SHT31;59989;46.220;19.888;2022-09-02T00:22:57;17.30;62.19
72114;SHT31;59989;46.220;19.888;2022-09-02T00:26:00;17.24;62.20
72114;SHT31;59989;46.220;19.888;2022-09-02T00:29:04;17.23;61.75
72114;SHT31;59989;46.220;19.888;2022-09-02T00:32:06;17.21;62.06
72114;SHT31;59989;46.220;19.888;2022-09-02T00:35:10;17.21;61.96
72114;SHT31;59989;46.220;19.888;2022-09-02T00:38:12;17.16;62.08
72114;SHT31;59989;46.220;19.888;2022-09-02T00:41:19;17.16;61.71
72114;SHT31;59989;46.220;19.888;2022-09-02T00:44:21;17.14;62.09
72114;SHT31;59989;46.220;19.888;2022-09-02T00:47:24;17.14;61.77
72114;SHT31;59989;46.220;19.888;2022-09-02T00:50:30;17.09;62.17
72114;SHT31;59989;46.220;19.888;2022-09-02T00:53:34;17.04;62.85
72114;SHT31;59989;46.220;19.888;2022-09-02T00:56:39;17.03;61.90
72114;SHT31;59989;46.220;19.888;2022-09-02T01:00:06;17.04;61.38
72114;SHT31;59989;46.220;19.888;2022-09-02T01:03:13;17.00;61.54
72114;SHT31;59989;46.220;19.888;2022-09-02T01:06:19;17.02;61.55
72114;SHT31;59989;46.220;19.888;2022-09-02T01:09:23;16.97;61.78
72114;SHT31;59989;46.220;19.888;2022-09-02T01:12:28;16.97;61.38
72114;SHT31;59989;46.220;19.888;2022-09-02T01:15:38;16.97;61.21
72114;SHT31;59989;46.220;19.888;2022-09-02T01:18:42;17.00;61.05
72114;SHT31;59989;46.220;19.888;2022-09-02T01:21:48;16.97;60.98
72114;SHT31;59989;46.220;19.888;2022-09-02T01:24:52;16.96;60.91
72114;SHT31;59989;46.220;19.888;2022-09-02T01:28:05;16.93;60.97
72114;SHT31;59989;46.220;19.888;2022-09-02T01:31:08;16.94;60.62
72114;SHT31;59989;46.220;19.888;2022-09-02T01:34:10;16.91;61.02
72114;SHT31;59989;46.220;19.888;2022-09-02T01:37:13;16.90;60.55
72114;SHT31;59989;46.220;19.888;2022-09-02T01:40:16;16.89;61.09
72114;SHT31;59989;46.220;19.888;2022-09-02T01:43:25;16.89;60.71
72114;SHT31;59989;46.220;19.888;2022-09-02T01:46:28;16.86;61.54
72114;SHT31;59989;46.220;19.888;2022-09-02T01:49:30;16.86;61.04
72114;SHT31;59989;46.220;19.888;2022-09-02T01:52:37;16.83;61.28
72114;SHT31;59989;46.220;19.888;2022-09-02T01:55:40;16.80;61.21
72114;SHT31;59989;46.220;19.888;2022-09-02T01:58:43;16.81;60.58
72114;SHT31;59989;46.220;19.888;2022-09-02T02:01:46;16.80;60.60
72114;SHT31;59989;46.220;19.888;2022-09-02T02:04:49;16.77;61.28
72114;SHT31;59989;46.220;19.888;2022-09-02T02:07:52;16.75;61.07
72114;SHT31;59989;46.220;19.888;2022-09-02T02:10:55;16.72;61.73
72114;SHT31;59989;46.220;19.888;2022-09-02T02:13:59;16.66;62.66
72114;SHT31;59989;46.220;19.888;2022-09-02T02:17:02;16.65;61.04
72114;SHT31;59989;46.220;19.888;2022-09-02T02:20:06;16.66;62.18
72114;SHT31;59989;46.220;19.888;2022-09-02T02:23:09;16.61;62.08
72114;SHT31;59989;46.220;19.888;2022-09-02T02:26:12;16.55;62.84
72114;SHT31;59989;46.220;19.888;2022-09-02T02:29:15;16.51;62.44
72114;SHT31;59989;46.220;19.888;2022-09-02T02:32:18;16.49;62.98
72114;SHT31;59989;46.220;19.888;2022-09-02T02:35:21;16.44;63.67
72114;SHT31;59989;46.220;19.888;2022-09-02T02:38:25;16.41;63.31
72114;SHT31;59989;46.220;19.888;2022-09-02T02:41:31;16.38;63.40
72114;SHT31;59989;46.220;19.888;2022-09-02T02:44:34;16.36;63.43
72114;SHT31;59989;46.220;19.888;2022-09-02T02:47:39;16.29;64.35
72114;SHT31;59989;46.220;19.888;2022-09-02T02:50:42;16.29;63.88
72114;SHT31;59989;46.220;19.888;2022-09-02T02:53:44;16.24;64.98
72114;SHT31;59989;46.220;19.888;2022-09-02T02:56:47;16.24;63.39
72114;SHT31;59989;46.220;19.888;2022-09-02T02:59:49;16.20;65.33
72114;SHT31;59989;46.220;19.888;2022-09-02T03:02:57;16.17;64.33
72114;SHT31;59989;46.220;19.888;2022-09-02T03:06:01;16.15;65.63
72114;SHT31;59989;46.220;19.888;2022-09-02T03:09:04;16.10;65.61
72114;SHT31;59989;46.220;19.888;2022-09-02T03:12:09;16.05;65.65
72114;SHT31;59989;46.220;19.888;2022-09-02T03:15:15;16.05;65.81
72114;SHT31;59989;46.220;19.888;2022-09-02T03:18:19;15.98;66.34
72114;SHT31;59989;46.220;19.888;2022-09-02T03:21:23;15.93;66.74
72114;SHT31;59989;46.220;19.888;2022-09-02T03:24:26;15.90;67.20
72114;SHT31;59989;46.220;19.888;2022-09-02T03:27:29;15.83;68.22
72114;SHT31;59989;46.220;19.888;2022-09-02T03:30:33;15.73;68.18
72114;SHT31;59989;46.220;19.888;2022-09-02T03:33:36;15.64;68.98
72114;SHT31;59989;46.220;19.888;2022-09-02T03:36:40;15.59;69.48
72114;SHT31;59989;46.220;19.888;2022-09-02T03:39:48;15.53;69.97
72114;SHT31;59989;46.220;19.888;2022-09-02T03:42:51;15.42;70.82
72114;SHT31;59989;46.220;19.888;2022-09-02T03:46:01;15.32;71.75
72114;SHT31;59989;46.220;19.888;2022-09-02T03:49:03;15.24;72.54
72114;SHT31;59989;46.220;19.888;2022-09-02T03:52:06;15.16;72.92
72114;SHT31;59989;46.220;19.888;2022-09-02T03:55:09;15.14;73.44
72114;SHT31;59989;46.220;19.888;2022-09-02T03:58:11;15.06;73.70
72114;SHT31;59989;46.220;19.888;2022-09-02T04:01:17;15.02;74.25
72114;SHT31;59989;46.220;19.888;2022-09-02T04:04:20;14.95;75.73
72114;SHT31;59989;46.220;19.888;2022-09-02T04:07:26;14.88;77.35
72114;SHT31;59989;46.220;19.888;2022-09-02T04:10:28;14.78;78.02
72114;SHT31;59989;46.220;19.888;2022-09-02T04:13:32;14.70;77.82
72114;SHT31;59989;46.220;19.888;2022-09-02T04:16:36;14.68;77.69
72114;SHT31;59989;46.220;19.888;2022-09-02T04:19:41;14.66;78.35
72114;SHT31;59989;46.220;19.888;2022-09-02T04:22:44;14.59;79.19
72114;SHT31;59989;46.220;19.888;2022-09-02T04:25:47;14.56;80.72
72114;SHT31;59989;46.220;19.888;2022-09-02T04:28:51;14.50;80.70
72114;SHT31;59989;46.220;19.888;2022-09-02T04:31:56;14.44;80.58
72114;SHT31;59989;46.220;19.888;2022-09-02T04:34:59;14.44;80.93
72114;SHT31;59989;46.220;19.888;2022-09-02T04:38:02;14.40;80.60
72114;SHT31;59989;46.220;19.888;2022-09-02T04:41:22;14.41;80.21
72114;SHT31;59989;46.220;19.888;2022-09-02T04:44:28;14.43;81.56
72114;SHT31;59989;46.220;19.888;2022-09-02T04:47:31;14.40;80.37
72114;SHT31;59989;46.220;19.888;2022-09-02T04:50:36;14.41;80.96
72114;SHT31;59989;46.220;19.888;2022-09-02T04:53:39;14.43;80.93
72114;SHT31;59989;46.220;19.888;2022-09-02T04:56:42;14.43;80.89
72114;SHT31;59989;46.220;19.888;2022-09-02T04:59:46;14.46;81.40
72114;SHT31;59989;46.220;19.888;2022-09-02T05:02:50;14.40;81.45
72114;SHT31;59989;46.220;19.888;2022-09-02T05:06:04;14.41;80.88
72114;SHT31;59989;46.220;19.888;2022-09-02T05:09:07;14.39;81.46
72114;SHT31;59989;46.220;19.888;2022-09-02T05:12:12;14.43;81.67
72114;SHT31;59989;46.220;19.888;2022-09-02T05:15:21;14.41;81.90
72114;SHT31;59989;46.220;19.888;2022-09-02T05:18:26;14.43;81.11
72114;SHT31;59989;46.220;19.888;2022-09-02T05:21:29;14.43;80.36
72114;SHT31;59989;46.220;19.888;2022-09-02T05:24:36;14.44;79.98
72114;SHT31;59989;46.220;19.888;2022-09-02T05:27:42;14.41;80.02
72114;SHT31;59989;46.220;19.888;2022-09-02T05:30:45;14.39;80.09
72114;SHT31;59989;46.220;19.888;2022-09-02T05:33:50;14.32;80.19
72114;SHT31;59989;46.220;19.888;2022-09-02T05:36:59;14.26;80.97
72114;SHT31;59989;46.220;19.888;2022-09-02T05:40:06;14.28;81.06
72114;SHT31;59989;46.220;19.888;2022-09-02T05:43:24;14.25;80.75
72114;SHT31;59989;46.220;19.888;2022-09-02T05:46:56;14.18;81.80
72114;SHT31;59989;46.220;19.888;2022-09-02T05:49:58;14.18;81.21
72114;SHT31;59989;46.220;19.888;2022-09-02T05:53:08;14.12;81.32
72114;SHT31;59989;46.220;19.888;2022-09-02T05:56:16;14.12;81.41
72114;SHT31;59989;46.220;19.888;2022-09-02T05:59:21;14.08;82.27
72114;SHT31;59989;46.220;19.888;2022-09-02T06:02:24;14.05;82.44
72114;SHT31;59989;46.220;19.888;2022-09-02T06:05:27;13.97;82.64
72114;SHT31;59989;46.220;19.888;2022-09-02T06:08:45;13.95;82.81
72114;SHT31;59989;46.220;19.888;2022-09-02T06:11:51;13.91;82.15
72114;SHT31;59989;46.220;19.888;2022-09-02T06:14:58;13.88;82.50
72114;SHT31;59989;46.220;19.888;2022-09-02T06:18:02;13.83;82.42
72114;SHT31;59989;46.220;19.888;2022-09-02T06:21:07;13.78;82.92
72114;SHT31;59989;46.220;19.888;2022-09-02T06:24:15;13.81;82.71
72114;SHT31;59989;46.220;19.888;2022-09-02T06:27:17;13.77;83.47
72114;SHT31;59989;46.220;19.888;2022-09-02T06:30:23;13.74;84.18
72114;SHT31;59989;46.220;19.888;2022-09-02T06:33:26;13.65;83.97
72114;SHT31;59989;46.220;19.888;2022-09-02T06:36:29;13.68;84.13
72114;SHT31;59989;46.220;19.888;2022-09-02T06:39:35;13.62;84.34
72114;SHT31;59989;46.220;19.888;2022-09-02T06:42:40;13.61;85.92
72114;SHT31;59989;46.220;19.888;2022-09-02T06:45:59;13.58;85.47
72114;SHT31;59989;46.220;19.888;2022-09-02T06:49:06;13.60;85.54
72114;SHT31;59989;46.220;19.888;2022-09-02T06:52:12;13.57;85.82
72114;SHT31;59989;46.220;19.888;2022-09-02T06:55:17;13.58;85.93
72114;SHT31;59989;46.220;19.888;2022-09-02T06:58:20;13.54;85.58
72114;SHT31;59989;46.220;19.888;2022-09-02T07:01:26;13.50;85.80
72114;SHT31;59989;46.220;19.888;2022-09-02T07:04:29;13.46;86.38
72114;SHT31;59989;46.220;19.888;2022-09-02T07:07:56;13.41;86.45
72114;SHT31;59989;46.220;19.888;2022-09-02T07:11:00;13.34;86.40
72114;SHT31;59989;46.220;19.888;2022-09-02T07:14:05;13.31;86.61
72114;SHT31;59989;46.220;19.888;2022-09-02T07:17:10;13.34;86.71
72114;SHT31;59989;46.220;19.888;2022-09-02T07:20:14;13.33;86.98
72114;SHT31;59989;46.220;19.888;2022-09-02T07:23:25;13.31;87.32
72114;SHT31;59989;46.220;19.888;2022-09-02T07:26:28;13.37;87.19
72114;SHT31;59989;46.220;19.888;2022-09-02T07:29:32;13.36;86.98
72114;SHT31;59989;46.220;19.888;2022-09-02T07:32:35;13.33;87.15
72114;SHT31;59989;46.220;19.888;2022-09-02T07:35:41;13.34;87.67
72114;SHT31;59989;46.220;19.888;2022-09-02T07:38:44;13.39;87.99
72114;SHT31;59989;46.220;19.888;2022-09-02T07:41:49;13.37;87.75
72114;SHT31;59989;46.220;19.888;2022-09-02T07:44:53;13.39;87.94
72114;SHT31;59989;46.220;19.888;2022-09-02T07:47:57;13.39;88.50
72114;SHT31;59989;46.220;19.888;2022-09-02T07:51:01;13.39;88.35
72114;SHT31;59989;46.220;19.888;2022-09-02T07:54:07;13.41;88.22
72114;SHT31;59989;46.220;19.888;2022-09-02T07:57:10;13.44;88.38
72114;SHT31;59989;46.220;19.888;2022-09-02T08:00:17;13.46;88.80
72114;SHT31;59989;46.220;19.888;2022-09-02T08:03:24;13.50;88.33
72114;SHT31;59989;46.220;19.888;2022-09-02T08:06:30;13.54;88.01
72114;SHT31;59989;46.220;19.888;2022-09-02T08:09:36;13.58;88.22
72114;SHT31;59989;46.220;19.888;2022-09-02T08:12:40;13.61;88.23
72114;SHT31;59989;46.220;19.888;2022-09-02T08:15:43;13.68;87.79
72114;SHT31;59989;46.220;19.888;2022-09-02T08:18:46;13.71;88.37
72114;SHT31;59989;46.220;19.888;2022-09-02T08:21:50;13.74;88.10
72114;SHT31;59989;46.220;19.888;2022-09-02T08:24:52;13.85;88.86
72114;SHT31;59989;46.220;19.888;2022-09-02T08:27:55;13.89;88.84
72114;SHT31;59989;46.220;19.888;2022-09-02T08:30:57;13.92;88.00
72114;SHT31;59989;46.220;19.888;2022-09-02T08:34:00;13.98;88.09
72114;SHT31;59989;46.220;19.888;2022-09-02T08:37:03;14.15;87.02
72114;SHT31;59989;46.220;19.888;2022-09-02T08:40:18;14.18;87.52
72114;SHT31;59989;46.220;19.888;2022-09-02T08:43:32;14.15;88.20
72114;SHT31;59989;46.220;19.888;2022-09-02T08:46:39;14.25;87.64
72114;SHT31;59989;46.220;19.888;2022-09-02T08:49:46;14.33;87.98
72114;SHT31;59989;46.220;19.888;2022-09-02T08:53:18;14.51;87.36
72114;SHT31;59989;46.220;19.888;2022-09-02T08:56:25;14.60;87.12
72114;SHT31;59989;46.220;19.888;2022-09-02T08:59:30;14.59;87.24
72114;SHT31;59989;46.220;19.888;2022-09-02T09:02:49;14.51;87.12
72114;SHT31;59989;46.220;19.888;2022-09-02T09:06:17;14.56;87.38
72114;SHT31;59989;46.220;19.888;2022-09-02T09:12:59;14.81;87.54
72114;SHT31;59989;46.220;19.888;2022-09-02T09:16:18;14.80;86.78
72114;SHT31;59989;46.220;19.888;2022-09-02T09:19:49;14.84;87.43
72114;SHT31;59989;46.220;19.888;2022-09-02T09:22:58;14.76;86.06
72114;SHT31;59989;46.220;19.888;2022-09-02T09:26:08;14.87;86.88
72114;SHT31;59989;46.220;19.888;2022-09-02T09:29:12;14.92;86.56
72114;SHT31;59989;46.220;19.888;2022-09-02T09:32:25;14.85;86.40
72114;SHT31;59989;46.220;19.888;2022-09-02T09:35:52;14.92;86.56
72114;SHT31;59989;46.220;19.888;2022-09-02T09:38:55;14.89;86.97
72114;SHT31;59989;46.220;19.888;2022-09-02T09:42:03;14.91;86.71
72114;SHT31;59989;46.220;19.888;2022-09-02T09:48:47;15.11;86.84
72114;SHT31;59989;46.220;19.888;2022-09-02T09:51:54;15.36;86.23
72114;SHT31;59989;46.220;19.888;2022-09-02T09:55:10;15.57;86.06
72114;SHT31;59989;46.220;19.888;2022-09-02T09:58:14;15.56;85.81
72114;SHT31;59989;46.220;19.888;2022-09-02T10:01:25;15.50;86.21
72114;SHT31;59989;46.220;19.888;2022-09-02T10:04:31;15.38;86.86
72114;SHT31;59989;46.220;19.888;2022-09-02T10:07:53;15.50;86.73
72114;SHT31;59989;46.220;19.888;2022-09-02T10:11:05;15.42;86.12
72114;SHT31;59989;46.220;19.888;2022-09-02T10:14:20;15.46;87.04
72114;SHT31;59989;46.220;19.888;2022-09-02T10:20:54;15.60;85.91
72114;SHT31;59989;46.220;19.888;2022-09-02T10:28:33;15.63;86.27
72114;SHT31;59989;46.220;19.888;2022-09-02T10:38:34;15.42;86.94
72114;SHT31;59989;46.220;19.888;2022-09-02T10:41:42;15.60;87.08
72114;SHT31;59989;46.220;19.888;2022-09-02T10:45:29;15.66;86.66
72114;SHT31;59989;46.220;19.888;2022-09-02T10:55:58;15.42;87.17
72114;SHT31;59989;46.220;19.888;2022-09-02T11:02:05;15.53;87.00
72114;SHT31;59989;46.220;19.888;2022-09-02T11:05:23;15.66;86.67
72114;SHT31;59989;46.220;19.888;2022-09-02T11:08:40;15.80;85.93
72114;SHT31;59989;46.220;19.888;2022-09-02T11:12:03;16.14;86.33
72114;SHT31;59989;46.220;19.888;2022-09-02T11:18:16;16.81;83.25
72114;SHT31;59989;46.220;19.888;2022-09-02T11:24:54;16.96;83.03
72114;SHT31;59989;46.220;19.888;2022-09-02T11:31:37;16.42;83.64
72114;SHT31;59989;46.220;19.888;2022-09-02T11:34:48;16.25;84.59
72114;SHT31;59989;46.220;19.888;2022-09-02T11:38:02;16.42;85.48
72114;SHT31;59989;46.220;19.888;2022-09-02T11:41:24;16.36;83.96
72114;SHT31;59989;46.220;19.888;2022-09-02T11:54:30;16.93;83.30
72114;SHT31;59989;46.220;19.888;2022-09-02T11:57:34;17.47;82.57
72114;SHT31;59989;46.220;19.888;2022-09-02T12:07:46;17.26;83.04
72114;SHT31;59989;46.220;19.888;2022-09-02T12:13:53;17.06;83.63
72114;SHT31;59989;46.220;19.888;2022-09-02T12:17:04;16.89;83.05
72114;SHT31;59989;46.220;19.888;2022-09-02T12:29:54;16.83;83.55
72114;SHT31;59989;46.220;19.888;2022-09-02T12:33:10;16.93;83.02
72114;SHT31;59989;46.220;19.888;2022-09-02T12:42:43;17.11;82.82
72114;SHT31;59989;46.220;19.888;2022-09-02T12:45:49;17.02;83.45
72114;SHT31;59989;46.220;19.888;2022-09-02T12:55:36;17.45;81.81
72114;SHT31;59989;46.220;19.888;2022-09-02T12:58:46;17.49;82.06
72114;SHT31;59989;46.220;19.888;2022-09-02T13:01:57;17.79;81.13
72114;SHT31;59989;46.220;19.888;2022-09-02T13:29:26;17.89;80.40
72114;SHT31;59989;46.220;19.888;2022-09-02T13:32:34;18.12;80.23
72114;SHT31;59989;46.220;19.888;2022-09-02T13:35:38;18.20;79.52
72114;SHT31;59989;46.220;19.888;2022-09-02T13:38:40;18.30;79.72
72114;SHT31;59989;46.220;19.888;2022-09-02T13:41:43;18.47;79.04
72114;SHT31;59989;46.220;19.888;2022-09-02T13:44:46;18.12;79.59
72114;SHT31;59989;46.220;19.888;2022-09-02T13:47:51;17.93;80.09
72114;SHT31;59989;46.220;19.888;2022-09-02T13:50:55;18.06;79.38
72114;SHT31;59989;46.220;19.888;2022-09-02T13:53:59;18.10;79.77
72114;SHT31;59989;46.220;19.888;2022-09-02T13:57:26;18.23;78.95
72114;SHT31;59989;46.220;19.888;2022-09-02T14:00:36;18.22;79.25
72114;SHT31;59989;46.220;19.888;2022-09-02T14:03:44;17.99;79.81
72114;SHT31;59989;46.220;19.888;2022-09-02T14:06:48;17.92;80.65
72114;SHT31;59989;46.220;19.888;2022-09-02T14:09:50;17.86;81.22
72114;SHT31;59989;46.220;19.888;2022-09-02T14:12:55;17.95;81.71
72114;SHT31;59989;46.220;19.888;2022-09-02T14:16:27;17.95;81.53
72114;SHT31;59989;46.220;19.888;2022-09-02T14:19:29;17.97;81.59
72114;SHT31;59989;46.220;19.888;2022-09-02T14:22:32;17.97;80.88
72114;SHT31;59989;46.220;19.888;2022-09-02T14:25:36;18.05;80.85
72114;SHT31;59989;46.220;19.888;2022-09-02T14:28:39;18.09;80.94
72114;SHT31;59989;46.220;19.888;2022-09-02T14:31:42;18.09;80.85
72114;SHT31;59989;46.220;19.888;2022-09-02T14:34:46;18.16;80.05
72114;SHT31;59989;46.220;19.888;2022-09-02T14:41:21;18.38;79.71
72114;SHT31;59989;46.220;19.888;2022-09-02T14:44:30;18.36;79.56
72114;SHT31;59989;46.220;19.888;2022-09-02T14:47:37;18.30;79.17
72114;SHT31;59989;46.220;19.888;2022-09-02T14:50:40;18.45;78.82
72114;SHT31;59989;46.220;19.888;2022-09-02T14:53:43;18.23;79.08
72114;SHT31;59989;46.220;19.888;2022-09-02T14:56:48;18.02;80.46
72114;SHT31;59989;46.220;19.888;2022-09-02T14:59:51;17.95;80.53
72114;SHT31;59989;46.220;19.888;2022-09-02T15:02:56;17.95;81.19
72114;SHT31;59989;46.220;19.888;2022-09-02T15:06:00;18.00;81.07
72114;SHT31;59989;46.220;19.888;2022-09-02T15:09:03;17.83;81.04
72114;SHT31;59989;46.220;19.888;2022-09-02T15:12:06;17.90;81.41
72114;SHT31;59989;46.220;19.888;2022-09-02T15:15:09;17.95;81.71
72114;SHT31;59989;46.220;19.888;2022-09-02T15:18:11;17.82;81.32
72114;SHT31;59989;46.220;19.888;2022-09-02T15:21:15;17.74;82.19
72114;SHT31;59989;46.220;19.888;2022-09-02T15:24:17;17.64;82.34
72114;SHT31;59989;46.220;19.888;2022-09-02T15:27:20;17.79;82.11
72114;SHT31;59989;46.220;19.888;2022-09-02T15:30:23;17.79;82.06
72114;SHT31;59989;46.220;19.888;2022-09-02T15:33:26;17.82;81.96
72114;SHT31;59989;46.220;19.888;2022-09-02T15:36:28;17.90;81.61
72114;SHT31;59989;46.220;19.888;2022-09-02T15:39:32;17.81;81.26
72114;SHT31;59989;46.220;19.888;2022-09-02T15:42:36;17.69;82.43
72114;SHT31;59989;46.220;19.888;2022-09-02T15:45:45;17.65;82.60
72114;SHT31;59989;46.220;19.888;2022-09-02T15:48:51;17.74;82.74
72114;SHT31;59989;46.220;19.888;2022-09-02T15:51:55;17.58;82.86
72114;SHT31;59989;46.220;19.888;2022-09-02T15:54:57;17.48;83.30
72114;SHT31;59989;46.220;19.888;2022-09-02T15:58:00;17.49;83.66
72114;SHT31;59989;46.220;19.888;2022-09-02T16:01:03;17.38;83.92
72114;SHT31;59989;46.220;19.888;2022-09-02T16:04:06;17.32;84.58
72114;SHT31;59989;46.220;19.888;2022-09-02T16:07:09;17.35;84.61
72114;SHT31;59989;46.220;19.888;2022-09-02T16:10:17;17.28;84.31
72114;SHT31;59989;46.220;19.888;2022-09-02T16:13:20;17.26;84.40
72114;SHT31;59989;46.220;19.888;2022-09-02T16:16:23;17.21;84.99
72114;SHT31;59989;46.220;19.888;2022-09-02T16:19:26;17.20;84.99
72114;SHT31;59989;46.220;19.888;2022-09-02T16:22:31;17.17;84.84
72114;SHT31;59989;46.220;19.888;2022-09-02T16:25:36;17.09;85.21
72114;SHT31;59989;46.220;19.888;2022-09-02T16:28:41;17.00;85.15
72114;SHT31;59989;46.220;19.888;2022-09-02T16:31:46;17.00;85.22
72114;SHT31;59989;46.220;19.888;2022-09-02T16:35:09;16.97;84.97
72114;SHT31;59989;46.220;19.888;2022-09-02T16:38:11;16.89;85.60
72114;SHT31;59989;46.220;19.888;2022-09-02T16:44:35;16.76;85.97
72114;SHT31;59989;46.220;19.888;2022-09-02T16:47:38;16.72;86.42
72114;SHT31;59989;46.220;19.888;2022-09-02T16:50:41;16.56;86.55
72114;SHT31;59989;46.220;19.888;2022-09-02T16:53:44;16.48;86.65
72114;SHT31;59989;46.220;19.888;2022-09-02T16:56:47;16.41;86.57
72114;SHT31;59989;46.220;19.888;2022-09-02T16:59:50;16.33;86.86
72114;SHT31;59989;46.220;19.888;2022-09-02T17:02:53;16.33;86.88
72114;SHT31;59989;46.220;19.888;2022-09-02T17:05:55;16.18;87.32
72114;SHT31;59989;46.220;19.888;2022-09-02T17:08:58;16.17;87.67
72114;SHT31;59989;46.220;19.888;2022-09-02T17:12:01;16.14;87.75
72114;SHT31;59989;46.220;19.888;2022-09-02T17:15:03;16.14;87.88
72114;SHT31;59989;46.220;19.888;2022-09-02T17:18:06;16.11;87.76
72114;SHT31;59989;46.220;19.888;2022-09-02T17:21:15;16.15;87.66
72114;SHT31;59989;46.220;19.888;2022-09-02T17:24:20;16.12;87.61
72114;SHT31;59989;46.220;19.888;2022-09-02T17:27:23;16.11;88.08
72114;SHT31;59989;46.220;19.888;2022-09-02T17:30:26;16.10;87.82
72114;SHT31;59989;46.220;19.888;2022-09-02T17:33:28;16.11;88.11
72114;SHT31;59989;46.220;19.888;2022-09-02T17:36:32;16.08;88.28
72114;SHT31;59989;46.220;19.888;2022-09-02T17:39:35;16.07;88.22
72114;SHT31;59989;46.220;19.888;2022-09-02T17:42:38;16.07;88.41
72114;SHT31;59989;46.220;19.888;2022-09-02T17:45:40;16.04;88.45
72114;SHT31;59989;46.220;19.888;2022-09-02T17:48:43;16.01;88.61
72114;SHT31;59989;46.220;19.888;2022-09-02T17:52:06;15.98;88.69
72114;SHT31;59989;46.220;19.888;2022-09-02T17:55:09;15.96;88.81
72114;SHT31;59989;46.220;19.888;2022-09-02T17:58:16;16.00;89.25
72114;SHT31;59989;46.220;19.888;2022-09-02T18:01:19;15.96;89.09
72114;SHT31;59989;46.220;19.888;2022-09-02T18:08:09;15.96;89.28
72114;SHT31;59989;46.220;19.888;2022-09-02T18:11:13;15.93;89.06
72114;SHT31;59989;46.220;19.888;2022-09-02T18:14:27;15.93;89.24
72114;SHT31;59989;46.220;19.888;2022-09-02T18:17:40;15.93;89.46
72114;SHT31;59989;46.220;19.888;2022-09-02T18:20:47;15.94;89.30
72114;SHT31;59989;46.220;19.888;2022-09-02T18:27:27;15.91;89.42
72114;SHT31;59989;46.220;19.888;2022-09-02T18:41:51;15.82;89.97
72114;SHT31;59989;46.220;19.888;2022-09-02T18:48:12;15.77;90.35
72114;SHT31;59989;46.220;19.888;2022-09-02T18:51:23;15.74;90.57
72114;SHT31;59989;46.220;19.888;2022-09-02T18:54:30;15.67;90.62
72114;SHT31;59989;46.220;19.888;2022-09-02T18:57:54;15.66;90.96
72114;SHT31;59989;46.220;19.888;2022-09-02T19:01:09;15.57;91.22
72114;SHT31;59989;46.220;19.888;2022-09-02T19:04:15;15.52;91.08
72114;SHT31;59989;46.220;19.888;2022-09-02T19:07:19;15.46;91.41
72114;SHT31;59989;46.220;19.888;2022-09-02T19:10:40;15.40;91.79
72114;SHT31;59989;46.220;19.888;2022-09-02T19:13:53;15.39;91.96
72114;SHT31;59989;46.220;19.888;2022-09-02T19:16:56;15.38;92.16
72114;SHT31;59989;46.220;19.888;2022-09-02T19:19:59;15.31;92.09
72114;SHT31;59989;46.220;19.888;2022-09-02T19:23:03;15.25;91.97
72114;SHT31;59989;46.220;19.888;2022-09-02T19:26:07;15.22;92.05
72114;SHT31;59989;46.220;19.888;2022-09-02T19:29:12;15.16;92.07
72114;SHT31;59989;46.220;19.888;2022-09-02T19:32:22;15.19;92.04
72114;SHT31;59989;46.220;19.888;2022-09-02T19:35:28;15.22;92.31
72114;SHT31;59989;46.220;19.888;2022-09-02T19:38:31;15.28;92.35
72114;SHT31;59989;46.220;19.888;2022-09-02T19:41:34;15.22;92.30
72114;SHT31;59989;46.220;19.888;2022-09-02T19:44:36;15.11;92.20
72114;SHT31;59989;46.220;19.888;2022-09-02T19:47:41;15.06;92.33
72114;SHT31;59989;46.220;19.888;2022-09-02T19:51:06;14.99;92.63
72114;SHT31;59989;46.220;19.888;2022-09-02T19:54:11;14.98;92.89
72114;SHT31;59989;46.220;19.888;2022-09-02T19:57:15;14.98;92.94
72114;SHT31;59989;46.220;19.888;2022-09-02T20:00:18;14.98;93.15
72114;SHT31;59989;46.220;19.888;2022-09-02T20:03:20;14.94;93.10
72114;SHT31;59989;46.220;19.888;2022-09-02T20:06:22;14.85;93.11
72114;SHT31;59989;46.220;19.888;2022-09-02T20:09:25;14.85;93.24
72114;SHT31;59989;46.220;19.888;2022-09-02T20:12:34;14.80;93.41
72114;SHT31;59989;46.220;19.888;2022-09-02T20:15:37;14.74;93.47
72114;SHT31;59989;46.220;19.888;2022-09-02T20:18:40;14.68;93.40
72114;SHT31;59989;46.220;19.888;2022-09-02T20:21:46;14.60;93.60
72114;SHT31;59989;46.220;19.888;2022-09-02T20:24:49;14.57;93.62
72114;SHT31;59989;46.220;19.888;2022-09-02T20:28:04;14.59;93.80
72114;SHT31;59989;46.220;19.888;2022-09-02T20:31:21;14.60;93.85
72114;SHT31;59989;46.220;19.888;2022-09-02T20:34:43;14.64;93.92
72114;SHT31;59989;46.220;19.888;2022-09-02T20:38:04;14.74;93.94
72114;SHT31;59989;46.220;19.888;2022-09-02T20:44:45;14.76;93.88
72114;SHT31;59989;46.220;19.888;2022-09-02T20:47:58;14.81;93.75
72114;SHT31;59989;46.220;19.888;2022-09-02T20:51:21;14.85;93.72
72114;SHT31;59989;46.220;19.888;2022-09-02T21:07:30;14.94;93.10
72114;SHT31;59989;46.220;19.888;2022-09-02T21:10:39;14.94;93.02
72114;SHT31;59989;46.220;19.888;2022-09-02T21:13:47;14.92;93.08
72114;SHT31;59989;46.220;19.888;2022-09-02T21:16:57;14.94;93.04
72114;SHT31;59989;46.220;19.888;2022-09-02T21:30:03;14.91;93.68
72114;SHT31;59989;46.220;19.888;2022-09-02T21:33:08;14.91;93.57
72114;SHT31;59989;46.220;19.888;2022-09-02T21:36:17;14.92;93.56
72114;SHT31;59989;46.220;19.888;2022-09-02T21:39:22;14.97;93.71
72114;SHT31;59989;46.220;19.888;2022-09-02T21:43:00;14.98;93.69
72114;SHT31;59989;46.220;19.888;2022-09-02T21:50:07;15.02;93.57
72114;SHT31;59989;46.220;19.888;2022-09-02T22:00:16;15.14;93.56
72114;SHT31;59989;46.220;19.888;2022-09-02T22:03:32;15.14;93.43
72114;SHT31;59989;46.220;19.888;2022-09-02T22:06:46;15.14;93.22
72114;SHT31;59989;46.220;19.888;2022-09-02T22:10:11;15.16;93.09
72114;SHT31;59989;46.220;19.888;2022-09-02T22:13:16;15.08;92.91
72114;SHT31;59989;46.220;19.888;2022-09-02T22:19:51;15.14;93.07